Time;durP1;ratioP1;P1;durP2;ratioP2;P2;SDS_P1;SDS_P2;PMS_P1;PMS_P2;Temp;Humidity;BMP_temperature;BMP_pressure;BME280_temperature;BME280_humidity;BME280_pressure;Samples;Min_cycle;Max_cycle;Signal;HPM_P1;HPM_P2
2022/11/30 00:00:03;;;;;;;34.97;20.93;;;;;;;0.93;98.24;98172.94;6291829;28;20847;-43
2022/11/30 00:03:12;;;;;;;35.43;20.77;;;;;;;0.92;98.34;98176.44;6284467;28;20222;-44
2022/11/30 00:06:21;;;;;;;43.40;24.00;;;;;;;0.90;98.17;98172.22;6290745;28;20236;-43
2022/11/30 00:09:24;;;;;;;42.57;23.30;;;;;;;0.88;98.32;98174.84;6289422;28;20298;-44
2022/11/30 00:12:27;;;;;;;42.57;24.90;;;;;;;0.88;98.50;98164.47;6291263;28;20487;-44
2022/11/30 00:15:29;;;;;;;46.90;27.13;;;;;;;0.87;98.14;98174.91;6294542;28;20252;-43
2022/11/30 00:18:32;;;;;;;44.10;25.77;;;;;;;0.83;98.21;98175.88;6288898;28;20232;-44
2022/11/30 00:21:34;;;;;;;40.83;24.03;;;;;;;0.79;98.37;98169.97;6294265;28;20232;-43
2022/11/30 00:24:36;;;;;;;40.90;24.33;;;;;;;0.76;98.49;98180.44;6291108;28;20253;-43
2022/11/30 00:27:38;;;;;;;46.20;24.97;;;;;;;0.72;98.61;98177.09;6295492;28;20301;-44
2022/11/30 00:30:40;;;;;;;36.13;21.53;;;;;;;0.68;98.90;98175.53;6293860;28;20388;-44
2022/11/30 00:33:43;;;;;;;40.90;23.87;;;;;;;0.68;98.83;98178.13;6295855;28;20236;-44
2022/11/30 00:36:45;;;;;;;38.17;23.17;;;;;;;0.66;99.01;98171.25;6293000;28;20231;-43
2022/11/30 00:39:47;;;;;;;39.47;22.13;;;;;;;0.60;98.54;98171.47;6287952;28;20768;-43
2022/11/30 00:42:49;;;;;;;40.83;23.23;;;;;;;0.58;98.76;98171.53;6294295;28;20228;-43
2022/11/30 00:45:52;;;;;;;34.07;20.27;;;;;;;0.57;98.59;98180.22;6294669;28;20218;-44
2022/11/30 00:48:54;;;;;;;35.37;20.53;;;;;;;0.57;98.72;98184.56;6293195;28;20705;-43
2022/11/30 00:51:56;;;;;;;33.37;19.67;;;;;;;0.59;98.75;98187.97;6295906;28;20686;-44
2022/11/30 00:54:58;;;;;;;35.07;19.93;;;;;;;0.57;98.84;98188.00;6289902;28;20231;-44
2022/11/30 00:58:06;;;;;;;32.90;19.90;;;;;;;0.58;98.56;98191.44;6291645;28;20305;-44
2022/11/30 01:01:08;;;;;;;30.73;19.37;;;;;;;0.59;98.78;98200.94;6294117;28;20456;-46
2022/11/30 01:04:10;;;;;;;41.13;24.20;;;;;;;0.60;98.37;98200.03;6294938;28;20231;-44
2022/11/30 01:07:12;;;;;;;37.80;20.70;;;;;;;0.60;98.68;98206.06;6292524;28;20267;-44
2022/11/30 01:10:15;;;;;;;36.67;23.07;;;;;;;0.63;98.35;98197.31;6292401;28;20226;-43
2022/11/30 01:13:17;;;;;;;44.37;23.60;;;;;;;0.64;98.82;98199.88;6287426;28;20230;-44
2022/11/30 01:16:26;;;;;;;42.70;24.30;;;;;;;0.67;98.70;98204.13;6292257;28;20745;-44
2022/11/30 01:19:28;;;;;;;43.23;24.13;;;;;;;0.70;98.71;98199.66;6294705;28;20243;-44
2022/11/30 01:22:30;;;;;;;42.33;24.03;;;;;;;0.71;98.72;98206.56;6290491;28;20230;-44
2022/11/30 01:25:33;;;;;;;51.17;28.97;;;;;;;0.77;98.67;98199.50;6288264;28;20233;-45
2022/11/30 01:28:35;;;;;;;51.97;28.30;;;;;;;0.79;98.79;98190.75;6291935;28;20237;-44
2022/11/30 01:31:37;;;;;;;48.60;27.93;;;;;;;0.81;98.59;98196.72;6292447;28;20229;-43
2022/11/30 01:34:40;;;;;;;46.90;26.33;;;;;;;0.82;98.73;98197.56;6287640;28;20259;-44
2022/11/30 01:37:42;;;;;;;48.30;26.93;;;;;;;0.84;98.81;98199.22;6287472;28;20231;-43
2022/11/30 01:40:49;;;;;;;44.00;26.17;;;;;;;0.87;98.55;98208.69;6294003;28;20388;-44
2022/11/30 01:44:15;;;;;;;55.47;31.30;;;;;;;0.89;98.63;98201.69;6290163;28;20226;-43
2022/11/30 01:47:50;;;;;;;57.13;32.00;;;;;;;0.85;98.49;98193.13;6289718;28;20228;-43
2022/11/30 01:50:55;;;;;;;50.17;27.70;;;;;;;0.84;98.80;98193.19;6289648;28;20239;-43
2022/11/30 01:53:57;;;;;;;48.03;27.93;;;;;;;0.88;98.76;98197.38;6283557;28;20299;-43
2022/11/30 01:57:12;;;;;;;47.90;25.80;;;;;;;0.90;98.89;98204.19;6292058;28;20239;-43
2022/11/30 02:00:15;;;;;;;49.30;27.07;;;;;;;0.93;98.53;98201.50;6290651;28;20648;-43
2022/11/30 02:03:38;;;;;;;48.27;29.87;;;;;;;0.96;98.54;98197.97;6277946;28;20259;-43
2022/11/30 02:06:41;;;;;;;51.30;28.17;;;;;;;0.96;98.41;98206.63;6288492;28;20230;-43
2022/11/30 02:09:44;;;;;;;49.47;28.57;;;;;;;0.97;98.87;98203.13;6290996;28;20255;-44
2022/11/30 02:13:18;;;;;;;50.53;28.27;;;;;;;0.97;98.41;98197.06;6294881;28;20249;-44
2022/11/30 02:16:54;;;;;;;59.50;32.10;;;;;;;0.94;98.75;98198.03;6191169;28;20581;-44
2022/11/30 02:20:20;;;;;;;53.60;29.17;;;;;;;0.88;98.54;98197.38;6186873;28;20740;-44
2022/11/30 02:23:33;;;;;;;51.30;29.63;;;;;;;0.84;98.59;98201.81;6190386;28;20242;-44
2022/11/30 02:27:03;;;;;;;53.67;29.67;;;;;;;0.84;98.72;98208.78;6191922;28;20588;-44
2022/11/30 02:30:14;;;;;;;58.53;29.40;;;;;;;0.83;99.00;98204.47;6190597;28;20233;-46
2022/11/30 02:33:21;;;;;;;51.80;29.77;;;;;;;0.85;99.00;98203.53;6190013;28;20273;-44
2022/11/30 02:36:23;;;;;;;53.83;29.50;;;;;;;0.86;99.13;98210.41;6188836;28;20439;-44
2022/11/30 02:39:26;;;;;;;51.63;27.63;;;;;;;0.87;98.99;98206.94;6173214;28;20308;-44
2022/11/30 02:42:28;;;;;;;52.70;27.90;;;;;;;0.87;98.86;98206.94;6190521;28;20225;-44
2022/11/30 02:45:41;;;;;;;49.57;27.37;;;;;;;0.87;99.12;98208.69;6177288;28;20236;-43
2022/11/30 02:48:46;;;;;;;49.57;27.37;;;;;;;0.86;99.16;98209.56;6185504;28;20253;-44
2022/11/30 02:51:50;;;;;;;54.90;28.73;;;;;;;0.86;99.00;98204.38;6231275;28;20288;-44
2022/11/30 02:54:58;;;;;;;54.30;30.13;;;;;;;0.86;98.94;98204.38;6286898;28;20231;-44
2022/11/30 02:58:00;;;;;;;57.93;30.17;;;;;;;0.84;98.72;98209.63;6291946;28;20222;-44
2022/11/30 03:01:02;;;;;;;48.90;26.43;;;;;;;0.82;98.86;98202.75;6289655;28;20215;-44
2022/11/30 03:04:05;;;;;;;44.47;27.60;;;;;;;0.80;99.18;98204.59;6292136;28;20290;-43
2022/11/30 03:07:07;;;;;;;48.40;26.97;;;;;;;0.74;98.91;98203.88;6290161;28;20228;-44
2022/11/30 03:10:09;;;;;;;53.53;28.53;;;;;;;0.71;99.13;98200.53;6290939;28;20227;-44
2022/11/30 03:13:11;;;;;;;46.60;26.43;;;;;;;0.68;98.99;98206.69;6289453;28;20239;-44
2022/11/30 03:16:14;;;;;;;42.93;24.83;;;;;;;0.65;99.48;98208.53;6273498;28;20247;-43
2022/11/30 03:19:16;;;;;;;46.67;26.93;;;;;;;0.63;99.38;98203.38;6289695;28;20605;-44
2022/11/30 03:22:18;;;;;;;45.63;25.57;;;;;;;0.59;99.54;98206.13;6290424;28;20380;-43
2022/11/30 03:25:20;;;;;;;39.97;24.00;;;;;;;0.57;99.40;98211.38;6289555;28;20235;-44
2022/11/30 03:28:22;;;;;;;41.60;23.07;;;;;;;0.58;99.67;98210.47;6289235;28;20231;-43
2022/11/30 03:31:24;;;;;;;46.63;26.20;;;;;;;0.58;99.24;98213.06;6289364;28;20598;-43
2022/11/30 03:34:27;;;;;;;43.90;24.97;;;;;;;0.57;99.32;98210.53;6287212;28;20235;-44
2022/11/30 03:37:29;;;;;;;41.67;24.20;;;;;;;0.57;99.25;98213.97;6290539;28;20397;-44
2022/11/30 03:40:31;;;;;;;42.33;23.80;;;;;;;0.58;99.44;98218.25;6290516;28;20746;-43
2022/11/30 03:43:33;;;;;;;44.23;24.70;;;;;;;0.61;99.21;98219.91;6290082;28;20237;-43
2022/11/30 03:46:35;;;;;;;40.03;23.77;;;;;;;0.64;98.77;98225.00;6293849;28;20227;-43
2022/11/30 03:49:38;;;;;;;51.33;27.23;;;;;;;0.66;99.31;98223.22;6299917;28;20274;-44
2022/11/30 03:52:40;;;;;;;52.47;28.00;;;;;;;0.66;99.04;98225.81;6295875;28;20636;-43
2022/11/30 03:55:42;;;;;;;45.73;26.57;;;;;;;0.68;99.03;98224.00;6299698;28;20243;-43
2022/11/30 03:58:44;;;;;;;50.43;27.40;;;;;;;0.70;99.02;98228.25;6294581;28;20253;-44
2022/11/30 04:01:46;;;;;;;52.00;28.47;;;;;;;0.68;99.16;98230.06;6298588;28;20222;-44
2022/11/30 04:04:48;;;;;;;56.20;31.87;;;;;;;0.69;98.78;98231.75;6295943;28;20310;-44
2022/11/30 04:07:50;;;;;;;62.00;30.93;;;;;;;0.70;99.12;98237.78;6300194;28;20582;-43
2022/11/30 04:10:54;;;;;;;66.13;36.27;;;;;;;0.68;98.79;98231.81;6298877;28;20267;-44
2022/11/30 04:13:57;;;;;;;64.67;34.70;;;;;;;0.62;98.87;98239.78;6290785;28;20367;-45
2022/11/30 04:16:59;;;;;;;63.83;33.57;;;;;;;0.55;98.70;98241.72;6299480;28;20257;-44
2022/11/30 04:20:01;;;;;;;69.93;35.17;;;;;;;0.54;98.89;98244.38;6292680;28;20334;-44
2022/11/30 04:23:03;;;;;;;65.03;35.07;;;;;;;0.49;99.33;98241.94;6296274;28;20317;-43
2022/11/30 04:26:09;;;;;;;70.07;36.07;;;;;;;0.47;99.19;98238.53;6297263;28;20248;-44
2022/11/30 04:29:12;;;;;;;70.83;37.73;;;;;;;0.41;99.07;98246.47;6290757;28;20259;-43
2022/11/30 04:32:14;;;;;;;76.47;38.57;;;;;;;0.38;99.30;98246.59;6292637;28;20254;-43
2022/11/30 04:35:16;;;;;;;77.73;38.57;;;;;;;0.33;99.72;98254.50;6298694;28;20600;-44
2022/11/30 04:38:18;;;;;;;74.40;37.13;;;;;;;0.31;99.65;98251.09;6297352;28;20230;-43
2022/11/30 04:41:20;;;;;;;80.80;38.27;;;;;;;0.25;99.99;98256.50;6299749;28;20308;-43
2022/11/30 04:44:22;;;;;;;68.33;36.23;;;;;;;0.25;100.00;98251.31;6297508;28;20226;-43
2022/11/30 04:47:24;;;;;;;82.20;37.63;;;;;;;0.26;99.87;98250.41;6298389;28;20326;-43
2022/11/30 04:50:26;;;;;;;73.63;35.10;;;;;;;0.28;100.00;98252.97;6296196;28;20241;-43
2022/11/30 04:53:29;;;;;;;71.43;37.63;;;;;;;0.31;100.00;98252.84;6290712;28;20277;-44
2022/11/30 04:56:31;;;;;;;68.10;33.23;;;;;;;0.35;100.00;98250.13;6296085;28;20307;-43
2022/11/30 04:59:33;;;;;;;71.23;35.00;;;;;;;0.39;100.00;98252.66;6294496;28;20230;-44
2022/11/30 05:02:35;;;;;;;71.83;35.10;;;;;;;0.41;100.00;98250.81;6293083;28;20576;-44
2022/11/30 05:05:37;;;;;;;64.33;33.50;;;;;;;0.43;100.00;98244.69;6286771;28;20599;-44
2022/11/30 05:08:39;;;;;;;70.27;34.00;;;;;;;0.44;100.00;98258.53;6277207;28;20554;-43
2022/11/30 05:11:41;;;;;;;74.57;37.47;;;;;;;0.47;100.00;98259.28;6291936;28;20590;-44
2022/11/30 05:14:43;;;;;;;61.30;31.37;;;;;;;0.46;100.00;98257.59;6294207;28;20850;-44
2022/11/30 05:17:46;;;;;;;74.50;35.50;;;;;;;0.43;100.00;98260.28;6292601;28;20226;-43
2022/11/30 05:20:50;;;;;;;70.00;34.50;;;;;;;0.46;100.00;98259.34;6293189;28;20443;-44
2022/11/30 05:23:52;;;;;;;68.17;33.13;;;;;;;0.46;100.00;98262.78;6290674;28;20229;-44
2022/11/30 05:26:54;;;;;;;63.67;32.73;;;;;;;0.47;100.00;98264.50;6291764;28;20225;-43
2022/11/30 05:29:56;;;;;;;60.90;31.83;;;;;;;0.49;100.00;98265.31;6292297;28;20237;-43
2022/11/30 05:32:58;;;;;;;61.73;30.73;;;;;;;0.51;100.00;98271.28;6294044;28;20250;-44
2022/11/30 05:36:00;;;;;;;60.60;31.03;;;;;;;0.53;100.00;98269.47;6287277;28;20272;-44
2022/11/30 05:39:09;;;;;;;69.07;33.33;;;;;;;0.55;100.00;98272.88;6288470;28;20305;-44
2022/11/30 05:42:11;;;;;;;58.40;28.73;;;;;;;0.58;100.00;98275.41;6291319;28;20215;-44
2022/11/30 05:45:13;;;;;;;57.90;28.83;;;;;;;0.58;100.00;98270.22;6293549;28;20242;-44
2022/11/30 05:48:15;;;;;;;58.73;29.23;;;;;;;0.60;100.00;98278.78;6292479;28;20219;-44
2022/11/30 05:51:19;;;;;;;57.23;29.97;;;;;;;0.62;100.00;98276.13;6286371;28;20589;-44
2022/11/30 05:54:21;;;;;;;59.90;31.73;;;;;;;0.64;100.00;98274.34;6290494;28;20246;-44
2022/11/30 05:57:23;;;;;;;62.10;30.87;;;;;;;0.64;100.00;98277.78;6293697;28;20621;-44
2022/11/30 06:00:25;;;;;;;66.10;31.33;;;;;;;0.64;100.00;98285.59;6286820;28;20230;-44
2022/11/30 06:03:29;;;;;;;62.20;31.57;;;;;;;0.67;100.00;98287.25;6293063;28;20236;-44
2022/11/30 06:06:31;;;;;;;58.40;30.63;;;;;;;0.67;100.00;98288.09;6274321;28;20234;-44
2022/11/30 06:09:33;;;;;;;58.73;29.57;;;;;;;0.68;100.00;98292.41;6286511;28;20233;-44
2022/11/30 06:12:35;;;;;;;60.13;31.63;;;;;;;0.68;100.00;98287.19;6290592;28;20227;-44
2022/11/30 06:15:39;;;;;;;60.77;30.43;;;;;;;0.69;100.00;98291.50;6292282;28;20599;-44
2022/11/30 06:18:41;;;;;;;62.90;31.63;;;;;;;0.71;100.00;98288.84;6292005;28;20392;-44
2022/11/30 06:21:43;;;;;;;59.13;31.70;;;;;;;0.71;100.00;98294.88;6288286;28;20230;-44
2022/11/30 06:24:45;;;;;;;65.43;32.77;;;;;;;0.69;100.00;98291.50;6289374;28;20706;-45
2022/11/30 06:27:48;;;;;;;67.60;31.70;;;;;;;0.70;100.00;98292.31;6290701;28;20230;-44
2022/11/30 06:30:50;;;;;;;68.10;33.87;;;;;;;0.70;99.80;98300.13;6291943;28;20230;-44
2022/11/30 06:33:56;;;;;;;74.90;35.77;;;;;;;0.69;100.00;98306.22;6286478;28;20224;-44
2022/11/30 06:36:58;;;;;;;60.10;31.13;;;;;;;0.66;100.00;98307.16;6290985;28;20610;-44
2022/11/30 06:40:00;;;;;;;74.40;35.63;;;;;;;0.68;100.00;98304.53;6289776;28;20230;-44
2022/11/30 06:43:08;;;;;;;76.57;35.47;;;;;;;0.67;100.00;98311.47;6295567;28;20258;-44
2022/11/30 06:46:10;;;;;;;69.63;37.57;;;;;;;0.66;99.68;98314.97;6291345;28;20242;-44
2022/11/30 06:49:12;;;;;;;83.20;41.57;;;;;;;0.63;99.55;98314.19;6291066;28;20639;-43
2022/11/30 06:52:14;;;;;;;80.13;38.93;;;;;;;0.56;99.97;98312.69;6288673;28;20231;-43
2022/11/30 06:55:17;;;;;;;80.07;39.67;;;;;;;0.52;99.85;98308.47;6293422;28;20230;-45
2022/11/30 06:58:19;;;;;;;79.73;40.83;;;;;;;0.52;99.97;98308.47;6283589;28;20225;-44
2022/11/30 07:01:21;;;;;;;81.37;40.73;;;;;;;0.53;99.53;98315.38;6293058;28;20581;-43
2022/11/30 07:04:24;;;;;;;75.90;39.27;;;;;;;0.53;100.00;98311.03;6290328;28;20316;-44
2022/11/30 07:07:29;;;;;;;78.03;39.03;;;;;;;0.54;99.67;98319.66;6288428;28;20238;-45
2022/11/30 07:10:31;;;;;;;69.23;34.97;;;;;;;0.59;100.00;98325.59;6284833;28;20226;-44
2022/11/30 07:13:33;;;;;;;74.33;39.43;;;;;;;0.62;99.60;98315.94;6290624;28;20740;-44
2022/11/30 07:16:35;;;;;;;75.03;39.97;;;;;;;0.61;99.53;98318.56;6287906;28;20242;-44
2022/11/30 07:19:38;;;;;;;73.60;36.80;;;;;;;0.60;99.54;98322.91;6290144;28;20258;-44
2022/11/30 07:22:40;;;;;;;79.57;39.63;;;;;;;0.65;99.89;98325.41;6285399;28;20307;-44
2022/11/30 07:29:04;;;;;;;84.07;40.47;;;;;;;0.76;99.67;98333.72;6285993;28;20286;-45
2022/11/30 07:32:06;;;;;;;72.53;37.23;;;;;;;0.79;99.96;98335.38;6289643;28;20234;-44
2022/11/30 07:35:08;;;;;;;81.80;39.97;;;;;;;0.85;99.74;98341.22;6285721;28;20230;-44
2022/11/30 07:38:10;;;;;;;66.13;36.00;;;;;;;0.89;99.58;98339.38;6289569;28;20246;-43
2022/11/30 07:41:12;;;;;;;77.60;36.97;;;;;;;0.94;99.40;98340.09;6286273;28;20325;-44
2022/11/30 07:44:14;;;;;;;70.70;36.37;;;;;;;0.97;99.44;98335.66;6288720;28;20259;-43
2022/11/30 07:47:16;;;;;;;71.60;36.30;;;;;;;1.05;99.44;98341.44;6290253;28;20313;-44
2022/11/30 07:50:19;;;;;;;66.43;35.70;;;;;;;1.10;99.03;98338.69;6286132;28;20233;-44
2022/11/30 07:53:21;;;;;;;66.67;35.37;;;;;;;1.13;98.86;98332.53;6284677;28;20226;-44
2022/11/30 07:56:24;;;;;;;63.70;33.33;;;;;;;1.13;98.53;98337.75;6288661;28;20304;-46
2022/11/30 07:59:26;;;;;;;72.87;37.43;;;;;;;1.12;98.41;98342.09;6289515;28;20234;-43
2022/11/30 08:02:28;;;;;;;64.83;34.20;;;;;;;1.06;98.35;98343.16;6291338;28;20310;-44
2022/11/30 08:05:30;;;;;;;62.83;31.80;;;;;;;1.06;98.35;98344.91;6290139;28;20631;-44
2022/11/30 08:08:35;;;;;;;66.47;33.67;;;;;;;1.08;98.36;98343.09;6291079;28;20291;-44
2022/11/30 08:11:38;;;;;;;64.10;33.67;;;;;;;1.11;98.07;98333.44;6287290;28;20325;-46
2022/11/30 08:14:40;;;;;;;66.97;34.07;;;;;;;1.18;98.31;98330.66;6291086;28;20258;-45
2022/11/30 08:18:05;;;;;;;60.43;32.80;;;;;;;1.21;98.29;98340.94;6287219;28;20321;-44
2022/11/30 08:21:10;;;;;;;61.67;32.40;;;;;;;1.24;98.09;98336.50;6266915;28;20218;-44
2022/11/30 08:24:12;;;;;;;64.73;36.77;;;;;;;1.25;97.85;98333.00;6282264;28;20297;-45
2022/11/30 08:27:15;;;;;;;61.17;34.13;;;;;;;1.25;97.55;98335.59;6286557;28;20219;-44
2022/11/30 08:30:17;;;;;;;61.97;32.50;;;;;;;1.30;97.73;98344.09;6286643;28;20324;-44
2022/11/30 08:33:19;;;;;;;62.80;34.17;;;;;;;1.41;97.70;98349.78;6289696;28;20243;-45
2022/11/30 08:36:24;;;;;;;62.90;33.67;;;;;;;1.53;97.48;98350.28;6295039;28;20246;-44
2022/11/30 08:39:27;;;;;;;61.20;32.03;;;;;;;1.62;96.90;98352.59;6293097;28;20307;-44
2022/11/30 08:42:29;;;;;;;57.83;30.80;;;;;;;1.69;96.67;98354.09;6293114;28;20236;-44
2022/11/30 08:45:31;;;;;;;59.70;32.10;;;;;;;1.79;96.18;98356.34;6293753;28;20227;-44
2022/11/30 08:48:34;;;;;;;62.50;32.77;;;;;;;1.95;96.39;98355.78;6274523;28;20233;-44
2022/11/30 08:51:37;;;;;;;61.27;31.43;;;;;;;2.11;95.75;98347.38;6293440;28;20227;-44
2022/11/30 08:54:59;;;;;;;55.90;29.40;;;;;;;2.27;95.43;98347.69;6287409;28;20294;-44
2022/11/30 08:58:01;;;;;;;52.50;30.37;;;;;;;2.35;94.55;98355.22;6293796;28;20653;-44
2022/11/30 09:01:17;;;;;;;52.73;29.97;;;;;;;2.46;94.18;98356.53;6291179;28;20234;-44
2022/11/30 09:04:19;;;;;;;55.27;31.17;;;;;;;2.60;93.66;98353.38;6290903;28;20651;-47
2022/11/30 09:07:21;;;;;;;54.10;28.60;;;;;;;2.75;93.05;98344.16;6293557;28;20369;-44
2022/11/30 09:10:23;;;;;;;47.37;27.73;;;;;;;2.84;92.51;98346.41;6291506;28;20230;-44
2022/11/30 09:13:26;;;;;;;52.73;28.03;;;;;;;2.92;91.87;98347.78;6291589;28;20700;-46
2022/11/30 09:16:28;;;;;;;46.23;27.50;;;;;;;2.99;91.82;98360.59;6291343;28;20263;-44
2022/11/30 09:19:30;;;;;;;44.43;25.87;;;;;;;2.99;90.83;98365.81;6295638;28;20294;-43
2022/11/30 09:22:32;;;;;;;47.37;28.47;;;;;;;3.03;90.50;98368.22;6295735;28;20324;-43
2022/11/30 09:25:34;;;;;;;45.90;27.70;;;;;;;3.10;90.96;98364.47;6297450;28;20243;-44
2022/11/30 09:28:37;;;;;;;51.20;29.47;;;;;;;3.11;89.94;98367.94;6287499;28;20279;-44
2022/11/30 09:31:39;;;;;;;51.80;29.43;;;;;;;3.06;89.71;98367.28;6274647;28;20237;-45
2022/11/30 09:34:43;;;;;;;50.57;28.43;;;;;;;3.08;89.88;98361.09;6286331;28;20237;-44
2022/11/30 09:37:45;;;;;;;52.73;29.47;;;;;;;3.17;90.32;98371.16;6291985;28;20613;-44
2022/11/30 09:40:55;;;;;;;49.27;28.80;;;;;;;3.22;90.13;98358.78;6293471;28;20254;-45
2022/11/30 09:44:28;;;;;;;47.33;27.57;;;;;;;3.32;89.71;98367.94;6268148;28;20230;-44
2022/11/30 09:47:53;;;;;;;45.77;26.10;;;;;;;3.42;89.14;98357.97;6287559;28;20222;-43
2022/11/30 09:50:59;;;;;;;36.30;23.03;;;;;;;3.45;88.43;98355.25;6289697;28;20272;-44
2022/11/30 09:54:08;;;;;;;38.30;23.50;;;;;;;3.42;88.61;98354.50;6289486;28;20225;-44
2022/11/30 09:57:45;;;;;;;36.57;22.37;;;;;;;3.50;88.70;98348.06;6290622;28;20662;-44
2022/11/30 10:00:47;;;;;;;39.73;23.07;;;;;;;3.53;88.05;98345.34;6291826;28;20237;-44
2022/11/30 10:03:50;;;;;;;35.33;21.97;;;;;;;3.56;87.80;98342.59;6290823;28;20234;-43
2022/11/30 10:07:07;;;;;;;37.80;22.63;;;;;;;3.68;86.75;98328.19;6291544;28;20234;-44
2022/11/30 10:10:23;;;;;;;27.40;18.13;;;;;;;3.80;85.65;98330.25;6288905;28;20699;-45
2022/11/30 10:13:59;;;;;;;26.60;16.97;;;;;;;4.05;85.25;98327.47;6291246;28;20242;-44
2022/11/30 10:17:36;;;;;;;24.27;16.03;;;;;;;4.16;84.32;98321.75;6290638;28;20249;-44
2022/11/30 10:20:56;;;;;;;26.60;16.53;;;;;;;4.26;83.52;98316.06;6288995;28;20611;-43
2022/11/30 10:24:19;;;;;;;25.07;15.47;;;;;;;4.39;82.79;98325.03;6295829;28;20320;-44
2022/11/30 10:28:12;;;;;;;20.37;13.97;;;;;;;4.49;81.96;98322.03;6288911;28;20230;-43
2022/11/30 10:31:38;;;;;;;23.50;15.87;;;;;;;4.42;81.52;98319.66;6200365;28;20747;-43
2022/11/30 10:34:43;;;;;;;22.27;15.20;;;;;;;4.36;81.21;98330.41;6199069;28;20221;-43
2022/11/30 10:37:47;;;;;;;25.00;15.40;;;;;;;4.42;81.15;98324.91;6193644;28;20240;-45
2022/11/30 10:40:58;;;;;;;31.80;18.43;;;;;;;4.48;80.73;98312.47;6197879;28;20410;-44
2022/11/30 10:44:11;;;;;;;28.30;17.77;;;;;;;4.42;80.55;98317.06;6197675;28;20236;-43
2022/11/30 10:47:24;;;;;;;30.33;18.67;;;;;;;4.30;79.65;98325.44;6195506;28;20748;-44
2022/11/30 10:50:28;;;;;;;30.73;19.63;;;;;;;4.25;80.15;98322.19;6197283;28;20292;-44
2022/11/30 10:53:31;;;;;;;27.80;17.93;;;;;;;4.33;79.99;98325.31;6196702;28;20264;-44
2022/11/30 10:56:33;;;;;;;33.27;19.43;;;;;;;4.45;80.31;98324.78;6198004;28;20234;-44
2022/11/30 10:59:46;;;;;;;33.73;20.60;;;;;;;4.59;78.80;98331.97;6198212;28;20282;-45
2022/11/30 11:02:49;;;;;;;30.83;19.30;;;;;;;4.58;79.38;98329.44;6201673;28;20234;-46
2022/11/30 11:06:30;;;;;;;34.33;20.43;;;;;;;4.59;78.64;98325.91;6268538;28;20775;-44
2022/11/30 11:09:35;;;;;;;37.63;22.73;;;;;;;4.43;78.71;98323.13;6246692;28;20240;-45
2022/11/30 11:12:37;;;;;;;38.93;24.73;;;;;;;4.23;79.08;98329.25;6247472;28;20231;-44
2022/11/30 11:15:39;;;;;;;39.30;24.23;;;;;;;4.16;80.80;98329.59;6248625;28;20232;-44
2022/11/30 11:18:53;;;;;;;41.37;26.80;;;;;;;4.26;80.55;98321.28;6247238;28;20736;-44
2022/11/30 11:21:55;;;;;;;43.70;27.13;;;;;;;4.18;81.27;98312.94;6221007;28;20231;-44
2022/11/30 11:25:09;;;;;;;49.63;29.20;;;;;;;4.18;81.15;98312.94;6247439;28;20790;-44
2022/11/30 11:28:17;;;;;;;42.30;26.53;;;;;;;4.09;81.71;98308.97;6232075;28;20235;-43
2022/11/30 11:31:41;;;;;;;37.73;23.10;;;;;;;4.09;80.62;98297.69;6244841;28;20254;-44
2022/11/30 11:34:44;;;;;;;37.17;23.50;;;;;;;4.21;81.60;98296.28;6245404;28;20246;-43
2022/11/30 11:37:52;;;;;;;42.67;26.53;;;;;;;4.37;81.38;98284.22;6240448;28;20713;-44
2022/11/30 11:40:54;;;;;;;42.87;26.00;;;;;;;4.33;81.25;98280.91;6278742;28;20229;-44
2022/11/30 11:44:08;;;;;;;45.73;25.70;;;;;;;4.41;80.73;98276.16;6289231;28;20253;-43
2022/11/30 11:47:26;;;;;;;45.27;27.33;;;;;;;4.44;80.08;98281.25;6289384;28;20244;-45
2022/11/30 11:50:31;;;;;;;41.30;25.73;;;;;;;4.47;80.04;98282.03;6284920;28;20281;-44
2022/11/30 11:53:57;;;;;;;39.80;23.90;;;;;;;4.47;79.99;98280.28;6271974;28;20242;-44
2022/11/30 11:57:01;;;;;;;34.90;21.97;;;;;;;4.51;79.80;98278.34;6290424;28;20226;-44
2022/11/30 12:00:26;;;;;;;44.20;24.57;;;;;;;4.62;78.96;98276.94;6286752;28;20628;-43
2022/11/30 12:03:50;;;;;;;38.27;22.33;;;;;;;4.72;79.52;98279.97;6290025;28;20310;-44
2022/11/30 12:06:55;;;;;;;40.83;24.67;;;;;;;4.70;78.77;98281.78;6269113;28;20653;-44
2022/11/30 12:10:18;;;;;;;41.47;25.17;;;;;;;4.71;79.05;98280.88;6295481;28;20314;-43
2022/11/30 12:13:42;;;;;;;46.30;25.80;;;;;;;4.80;78.36;98285.66;6291944;28;20235;-43
2022/11/30 12:16:56;;;;;;;40.70;24.67;;;;;;;4.68;78.24;98279.28;6295619;28;20238;-46
2022/11/30 12:20:20;;;;;;;39.03;23.20;;;;;;;4.77;78.16;98280.59;6293823;28;20645;-43
2022/11/30 12:23:32;;;;;;;35.50;22.07;;;;;;;4.79;78.10;98287.44;6295104;28;20332;-44
2022/11/30 12:26:47;;;;;;;35.40;22.73;;;;;;;4.86;78.37;98290.63;6285758;28;20241;-44
2022/11/30 12:30:51;;;;;;;36.13;22.93;;;;;;;4.90;77.30;98291.31;6288997;28;20242;-44
2022/11/30 12:34:16;;;;;;;29.30;18.30;;;;;;;4.92;77.02;98286.84;6249245;28;20235;-43
2022/11/30 12:37:37;;;;;;;29.90;19.07;;;;;;;4.77;76.82;98291.06;6286530;28;20248;-43
2022/11/30 12:41:23;;;;;;;29.50;18.53;;;;;;;4.57;76.88;98296.38;6291836;28;20235;-44
2022/11/30 12:44:50;;;;;;;31.37;19.13;;;;;;;4.51;77.00;98300.09;6289713;28;20324;-43
2022/11/30 12:48:19;;;;;;;24.80;16.07;;;;;;;4.30;75.94;98298.47;6288315;28;20271;-44
2022/11/30 12:51:32;;;;;;;26.50;15.93;;;;;;;4.29;76.10;98294.19;6291199;28;20726;-43
2022/11/30 12:54:56;;;;;;;30.33;19.47;;;;;;;4.21;76.90;98289.28;6294708;28;20226;-44
2022/11/30 12:58:07;;;;;;;31.03;19.90;;;;;;;4.24;77.60;98283.09;6271865;28;20337;-44
2022/11/30 13:01:31;;;;;;;36.23;22.87;;;;;;;4.20;78.20;98281.50;6292276;28;20261;-44
2022/11/30 13:04:45;;;;;;;35.90;21.87;;;;;;;4.17;78.09;98274.69;6287061;28;20717;-44
2022/11/30 13:08:06;;;;;;;33.17;20.57;;;;;;;4.18;78.33;98273.78;6288174;28;20234;-46
2022/11/30 13:11:18;;;;;;;29.63;17.73;;;;;;;4.22;78.51;98277.91;6290667;28;20230;-45
2022/11/30 13:14:23;;;;;;;31.17;18.97;;;;;;;4.27;78.06;98275.13;6295118;28;20906;-44
2022/11/30 13:17:25;;;;;;;25.77;16.23;;;;;;;4.26;77.59;98274.25;6288803;28;20646;-44
2022/11/30 13:20:45;;;;;;;23.27;15.53;;;;;;;4.22;76.90;98269.22;6292879;28;20313;-44
2022/11/30 13:23:56;;;;;;;25.13;15.33;;;;;;;4.08;76.46;98278.56;6282584;28;20287;-44
2022/11/30 13:27:13;;;;;;;25.43;17.80;;;;;;;4.06;76.16;98269.09;6291569;28;20242;-44
2022/11/30 13:30:22;;;;;;;24.70;16.10;;;;;;;4.04;76.80;98273.53;6291324;28;20239;-44
2022/11/30 13:33:34;;;;;;;24.07;14.80;;;;;;;4.01;76.66;98277.13;6295649;28;20226;-44
2022/11/30 13:36:43;;;;;;;24.43;14.43;;;;;;;4.05;76.46;98275.22;6292639;28;20226;-43
2022/11/30 13:39:54;;;;;;;19.50;13.60;;;;;;;4.09;76.69;98275.00;6291737;28;20352;-45
2022/11/30 13:42:57;;;;;;;21.27;12.93;;;;;;;4.07;76.07;98281.22;6294628;28;20815;-43
2022/11/30 13:46:19;;;;;;;18.63;12.73;;;;;;;4.00;75.87;98285.00;6292299;28;20301;-43
2022/11/30 13:49:27;;;;;;;19.83;12.90;;;;;;;3.92;76.04;98280.13;6268003;28;20226;-43
2022/11/30 13:52:57;;;;;;;22.13;13.17;;;;;;;3.89;75.55;98284.66;6290776;28;20652;-44
2022/11/30 13:56:05;;;;;;;18.83;13.53;;;;;;;3.91;76.45;98291.50;6291370;28;20224;-43
2022/11/30 13:59:22;;;;;;;17.27;11.63;;;;;;;3.95;76.04;98285.22;6293441;28;20330;-47
2022/11/30 14:03:04;;;;;;;19.73;12.67;;;;;;;3.98;75.84;98294.69;6295146;28;20223;-44
2022/11/30 14:06:20;;;;;;;14.57;9.77;;;;;;;3.91;74.88;98288.88;6289317;28;20224;-43
2022/11/30 14:09:41;;;;;;;14.20;10.57;;;;;;;3.89;75.27;98287.28;6292350;28;20290;-44
2022/11/30 14:12:46;;;;;;;19.40;12.63;;;;;;;3.86;75.30;98287.41;6290113;28;20230;-43
2022/11/30 14:15:54;;;;;;;18.33;12.03;;;;;;;3.69;74.06;98281.13;6292007;28;20239;-44
2022/11/30 14:18:57;;;;;;;16.90;12.03;;;;;;;3.63;74.51;98281.41;6288231;28;20321;-44
2022/11/30 14:21:59;;;;;;;17.27;11.80;;;;;;;3.64;74.72;98274.41;6293134;28;20612;-44
2022/11/30 14:25:03;;;;;;;20.80;12.87;;;;;;;3.62;75.15;98271.88;6291375;28;20222;-43
2022/11/30 14:28:08;;;;;;;15.03;10.77;;;;;;;3.61;75.63;98278.00;6290649;28;20257;-44
2022/11/30 14:31:15;;;;;;;18.03;11.53;;;;;;;3.61;75.55;98271.94;6277502;28;20261;-43
2022/11/30 14:34:33;;;;;;;20.77;13.23;;;;;;;3.57;75.62;98281.69;6289639;28;20697;-43